MBS International Airport
KMBS : now visible

Airfield :











YOU CAN JOIN US ON...

 
LOGIN :

Register | Disclaimer

   EN    FR    IT 

 









Legend :    VFR   Marginal VFR   IFR   Intensive IFR   Very Intensive IFR
Visi :
Ceiling :
>= 8 km
>= 3000ft
5 to 8 km
1000 to 3000 ft
1500m to 5 km
500 to 1000 ft
800 to 1500m
200 to 500 ft
< 800m
< 200 ft
Symbols :   Thunderstorms  Fog  Heavy snow  Heavy precipitations  Wind > 20 kt






- Airport Elevation : 668 ft
- IATA code : MBS


KMBS - MBS International

CURRENT METAR :
  • 141953Z 27005KT 6SM HZ OVC016 02/M02 A2958 RMK AO2 SLP025 T00221017

EXPIRED METARs :
  • 141918Z 29006KT 6SM HZ BKN017 OVC055 03/M02 A2958 RMK AO2 T00281017
  • 141853Z 31007KT 7SM FEW038 SCT045 OVC055 03/M02 A2958 RMK AO2 SLP023 T00281017
  • 141828Z 32007KT 6SM HZ FEW013 SCT030 OVC050 03/M02 A2958 RMK AO2 T00281017
  • 141753Z 31007KT 6SM HZ BKN014 BKN038 OVC049 03/M02 A2959 RMK AO2 SLP027 T00281017 10028 21017 58016

TAF KMBS
Valid from the 14 at 18:00 until the 15 at 18:00 UTC


141724Z 1418/1518 31006KT 4SM HZ SCT010 BKN060
FM142100 31008KT 5SM BR OVC012
FM150200 28012KT P6SM OVC010
TEMPO 1504/1508 3SM -SHSN OVC007
FM151200 30014KT P6SM SCT015 OVC025



MET'MAP, your aeronautical weather chart ! - Copyright ORBIFLY December 2007 - Disclaimer

ORBIFLY MET'MAP TEAM :

Programming & Development : Alexandra Zaïnal
Concept & original design : Baudouin d'Aumeries
Assistance for programming : Marc-Olivier Méhu
Technical & hardware support : Manuel Goepfert

Contact : metmap@orbifly.com




SOURCES & CREDITS :

   NOAA       Earth
Advisory